createdAt,value
2018-03-19T00:00:50.097Z,75.07
2018-03-19T00:03:17.628Z,75.27
2018-03-19T00:05:45.028Z,75.17
2018-03-19T00:08:12.471Z,75.26
2018-03-19T00:10:39.989Z,75.02
2018-03-19T00:13:07.662Z,75.22
2018-03-19T00:15:35.058Z,74.93
2018-03-19T00:18:02.473Z,75.34
2018-03-19T00:20:30.000Z,75.66
2018-03-19T00:22:57.433Z,75.45
2018-03-19T00:25:24.829Z,75.84
2018-03-19T00:27:52.521Z,76.11
2018-03-19T00:30:19.950Z,75.88
2018-03-19T00:32:47.357Z,75.43
2018-03-19T00:35:14.787Z,75.58
2018-03-19T00:37:42.200Z,74.82
2018-03-19T00:40:09.628Z,74.62
2018-03-19T00:42:37.096Z,74.50
2018-03-19T00:45:04.545Z,74.19
2018-03-19T00:47:32.015Z,74.55
2018-03-19T00:49:59.486Z,74.93
2018-03-19T00:52:26.900Z,75.42
2018-03-19T00:54:54.346Z,75.12
2018-03-19T00:57:21.758Z,75.20
2018-03-19T00:59:49.258Z,74.76
2018-03-19T01:02:16.714Z,74.64
2018-03-19T01:04:44.537Z,74.95
2018-03-19T01:07:12.018Z,74.98
2018-03-19T01:09:39.494Z,75.51
2018-03-19T01:12:06.912Z,75.32
2018-03-19T01:14:34.348Z,75.48
2018-03-19T01:17:01.826Z,75.56
2018-03-19T01:19:29.230Z,75.27
2018-03-19T01:21:56.705Z,75.34
2018-03-19T01:24:24.176Z,74.49
2018-03-19T01:26:51.644Z,74.41
2018-03-19T01:29:19.140Z,74.80
2018-03-19T01:31:46.609Z,74.53
2018-03-19T01:34:14.080Z,74.54
2018-03-19T01:36:41.511Z,74.60
2018-03-19T01:39:09.012Z,75.23
2018-03-19T01:41:36.452Z,75.10
2018-03-19T01:44:03.933Z,75.30
2018-03-19T01:46:31.389Z,75.47
2018-03-19T01:48:58.837Z,75.37
2018-03-19T01:51:26.318Z,75.66
2018-03-19T01:53:53.786Z,75.50
2018-03-19T01:56:21.192Z,75.93
2018-03-19T01:58:48.612Z,75.88
2018-03-19T02:01:16.013Z,75.51
2018-03-19T02:03:43.635Z,75.38
2018-03-19T02:06:11.094Z,75.89
2018-03-19T02:08:38.558Z,76.19
2018-03-19T02:11:05.950Z,76.04
2018-03-19T02:13:33.362Z,76.02
2018-03-19T02:16:00.785Z,76.28
2018-03-19T02:18:28.222Z,75.88
2018-03-19T02:20:55.620Z,75.48
2018-03-19T02:23:23.045Z,75.46
2018-03-19T02:25:50.473Z,75.90
2018-03-19T02:28:17.881Z,75.82
2018-03-19T02:30:45.309Z,75.93
2018-03-19T02:33:12.742Z,76.15
2018-03-19T02:35:40.173Z,76.42
2018-03-19T02:38:07.707Z,76.29
2018-03-19T02:40:35.189Z,76.07
2018-03-19T02:43:02.587Z,76.78
2018-03-19T02:45:29.994Z,76.88
2018-03-19T02:47:57.425Z,76.95
2018-03-19T02:50:24.858Z,77.07
2018-03-19T02:52:52.279Z,77.29
2018-03-19T02:55:19.756Z,77.01
2018-03-19T02:57:47.552Z,76.77
2018-03-19T03:00:15.000Z,77.39
2018-03-19T03:02:42.430Z,77.25
2018-03-19T03:05:09.877Z,77.44
2018-03-19T03:07:37.345Z,77.35
2018-03-19T03:10:05.193Z,76.72
2018-03-19T03:12:32.659Z,76.52
2018-03-19T03:15:00.119Z,76.58
2018-03-19T03:17:27.577Z,76.30
2018-03-19T03:19:55.048Z,76.30
2018-03-19T03:22:22.473Z,76.20
2018-03-19T03:24:49.970Z,76.76
2018-03-19T03:27:17.380Z,76.85
2018-03-19T03:29:44.833Z,76.91
2018-03-19T03:32:12.250Z,76.94
2018-03-19T03:34:39.714Z,76.57
2018-03-19T03:37:07.903Z,76.25
2018-03-19T03:39:35.339Z,76.52
2018-03-19T03:42:02.731Z,76.63
2018-03-19T03:44:30.176Z,76.58
2018-03-19T03:46:57.596Z,76.79
2018-03-19T03:49:25.019Z,77.18
2018-03-19T03:51:52.444Z,77.65
2018-03-19T03:54:25.539Z,77.82
2018-03-19T03:56:52.989Z,77.52
2018-03-19T03:59:20.388Z,77.77
2018-03-19T04:01:47.822Z,77.63
2018-03-19T04:04:15.283Z,77.27
2018-03-19T04:06:42.712Z,76.98
2018-03-19T04:09:10.671Z,77.40
2018-03-19T04:11:38.071Z,77.62
2018-03-19T04:14:05.537Z,77.78
2018-03-19T04:16:32.964Z,77.49
2018-03-19T04:19:00.461Z,76.85
2018-03-19T04:21:28.588Z,76.86
2018-03-19T04:23:55.989Z,76.97
2018-03-19T04:26:23.864Z,76.94
2018-03-19T04:28:51.260Z,77.11
2018-03-19T04:31:18.737Z,76.99
2018-03-19T04:33:46.151Z,77.17
2018-03-19T04:36:13.592Z,77.04
2018-03-19T04:38:41.101Z,76.91
2018-03-19T04:41:08.571Z,76.70
2018-03-19T04:43:36.010Z,76.02
2018-03-19T04:46:03.550Z,76.12
2018-03-19T04:48:30.933Z,75.93
2018-03-19T04:50:58.394Z,75.52
2018-03-19T04:53:25.820Z,75.13
2018-03-19T04:55:53.252Z,75.08
2018-03-19T04:58:20.689Z,75.24
2018-03-19T05:00:48.132Z,75.33
2018-03-19T05:03:15.550Z,75.23
2018-03-19T05:05:42.978Z,74.74
2018-03-19T05:08:10.433Z,74.62
2018-03-19T05:10:37.849Z,74.85
2018-03-19T05:13:05.279Z,74.85
2018-03-19T05:15:32.758Z,75.04
2018-03-19T05:18:00.221Z,75.26
2018-03-19T05:20:27.712Z,74.91
2018-03-19T05:22:55.173Z,74.59
2018-03-19T05:25:22.629Z,75.10
2018-03-19T05:27:50.021Z,75.52
2018-03-19T05:30:17.429Z,76.05
2018-03-19T05:32:44.867Z,76.07
2018-03-19T05:35:12.367Z,75.86
2018-03-19T05:37:39.745Z,75.66
2018-03-19T05:40:07.144Z,75.82
2018-03-19T05:42:34.647Z,75.78
2018-03-19T05:45:02.074Z,76.08
2018-03-19T05:47:29.553Z,76.30
2018-03-19T05:49:57.041Z,76.71
2018-03-19T05:52:24.545Z,76.78
2018-03-19T05:54:51.981Z,76.68
2018-03-19T05:57:19.397Z,76.49
2018-03-19T05:59:47.054Z,76.48
2018-03-19T06:02:14.515Z,76.29
2018-03-19T06:04:41.974Z,76.66
2018-03-19T06:07:09.373Z,76.92
2018-03-19T06:09:36.853Z,77.09
2018-03-19T06:12:04.244Z,76.46
2018-03-19T06:14:31.687Z,76.23
2018-03-19T06:16:59.113Z,76.18
2018-03-19T06:19:26.578Z,76.74
2018-03-19T06:21:54.125Z,77.08
2018-03-19T06:24:21.554Z,76.69
2018-03-19T06:26:49.155Z,76.23
2018-03-19T06:29:16.585Z,76.49
2018-03-19T06:31:44.005Z,76.37
2018-03-19T06:34:11.488Z,76.21
2018-03-19T06:36:39.044Z,76.08
2018-03-19T06:39:06.511Z,76.29
2018-03-19T06:41:34.128Z,76.40
2018-03-19T06:44:01.652Z,76.77
2018-03-19T06:46:29.311Z,76.15
2018-03-19T06:48:57.474Z,75.63
2018-03-19T06:51:24.945Z,75.34
2018-03-19T06:53:52.379Z,75.03
2018-03-19T06:56:19.825Z,74.73
2018-03-19T06:58:47.290Z,74.81
2018-03-19T07:01:14.731Z,74.99
2018-03-19T07:03:42.334Z,74.99
2018-03-19T07:06:09.806Z,74.97
2018-03-19T07:08:37.238Z,75.17
2018-03-19T07:11:04.644Z,75.18
2018-03-19T07:13:32.470Z,74.51
2018-03-19T07:15:59.921Z,74.33
2018-03-19T07:18:27.395Z,74.63
2018-03-19T07:20:54.906Z,74.29
2018-03-19T07:23:22.332Z,74.13
2018-03-19T07:25:49.792Z,73.25
2018-03-19T07:28:17.253Z,72.25
2018-03-19T07:30:44.672Z,71.91
2018-03-19T07:33:12.203Z,70.93
2018-03-19T07:35:39.661Z,69.35
2018-03-19T07:38:07.086Z,68.95
2018-03-19T07:40:34.533Z,68.03
2018-03-19T07:43:02.063Z,67.10
2018-03-19T07:45:29.539Z,67.52
2018-03-19T07:47:57.040Z,68.15
2018-03-19T07:50:24.426Z,68.09
2018-03-19T07:52:51.870Z,67.43
2018-03-19T07:55:19.429Z,67.02
2018-03-19T07:57:46.870Z,66.82
2018-03-19T08:00:14.292Z,67.68
2018-03-19T08:02:41.685Z,67.64
2018-03-19T08:05:09.144Z,67.76
2018-03-19T08:07:36.603Z,66.67
2018-03-19T08:10:04.101Z,66.81
2018-03-19T08:12:31.558Z,67.15
2018-03-19T08:14:58.965Z,66.80
2018-03-19T08:17:26.401Z,63.32
2018-03-19T08:19:54.302Z,60.42
2018-03-19T08:22:21.753Z,58.06
2018-03-19T08:24:49.863Z,57.14
2018-03-19T08:27:17.334Z,55.75
2018-03-19T08:29:44.753Z,55.08
2018-03-19T08:32:12.234Z,57.45
2018-03-19T08:34:40.565Z,60.78
2018-03-19T08:37:08.067Z,61.95
2018-03-19T08:39:35.546Z,63.44
2018-03-19T08:42:03.054Z,63.95
2018-03-19T08:44:30.549Z,64.60
2018-03-19T08:46:58.062Z,64.75
2018-03-19T08:49:25.634Z,64.18
2018-03-19T08:51:53.038Z,62.63
2018-03-19T08:54:21.448Z,62.05
2018-03-19T08:56:49.521Z,61.73
2018-03-19T08:59:17.179Z,60.33
2018-03-19T09:01:44.652Z,57.40
2018-03-19T09:04:12.151Z,53.90
2018-03-19T09:06:39.600Z,52.57
2018-03-19T09:09:07.077Z,54.72
2018-03-19T09:11:34.886Z,57.05
2018-03-19T09:14:02.285Z,58.81
2018-03-19T09:16:29.739Z,59.57
2018-03-19T09:18:57.190Z,59.66
2018-03-19T09:21:24.778Z,58.57
2018-03-19T09:23:52.261Z,56.79
2018-03-19T09:26:19.747Z,55.45
2018-03-19T09:28:47.473Z,54.10
2018-03-19T09:31:15.112Z,53.50
2018-03-19T09:33:42.548Z,51.51
2018-03-19T09:36:09.973Z,50.11
2018-03-19T09:38:37.439Z,50.67
2018-03-19T09:41:04.914Z,49.70
2018-03-19T09:43:32.358Z,48.60
2018-03-19T09:45:59.792Z,48.16
2018-03-19T09:48:27.238Z,47.88
2018-03-19T09:50:54.717Z,48.32
2018-03-19T09:53:22.186Z,47.56
2018-03-19T09:55:49.875Z,47.08
2018-03-19T09:58:17.326Z,46.56
2018-03-19T10:00:44.916Z,46.51
2018-03-19T10:03:12.367Z,46.07
2018-03-19T10:05:39.815Z,45.43
2018-03-19T10:08:07.529Z,45.72
2018-03-19T10:10:34.985Z,46.40
2018-03-19T10:13:02.552Z,46.41
2018-03-19T10:15:31.315Z,46.35
2018-03-19T10:17:58.756Z,46.45
2018-03-19T10:20:26.246Z,46.25
2018-03-19T10:22:53.849Z,46.17
2018-03-19T10:25:21.318Z,44.42
2018-03-19T10:27:48.857Z,42.56
2018-03-19T10:30:16.888Z,43.68
2018-03-19T10:32:44.323Z,44.95
2018-03-19T10:35:11.820Z,43.92
2018-03-19T10:37:39.265Z,43.92
2018-03-19T10:40:06.729Z,42.74
2018-03-19T10:42:34.193Z,42.08
2018-03-19T10:45:01.626Z,42.10
2018-03-19T10:47:29.105Z,42.14
2018-03-19T10:49:56.675Z,41.32
2018-03-19T10:52:24.119Z,40.75
2018-03-19T10:54:51.585Z,40.52
2018-03-19T10:57:19.024Z,40.31
2018-03-19T10:59:46.734Z,40.52
2018-03-19T11:02:16.174Z,40.46
2018-03-19T11:04:49.147Z,40.90
2018-03-19T11:07:22.096Z,41.34
2018-03-19T11:09:49.542Z,41.78
2018-03-19T11:12:17.039Z,41.78
2018-03-19T11:14:44.473Z,41.45
2018-03-19T11:17:12.945Z,41.31
2018-03-19T11:19:40.428Z,42.26
2018-03-19T11:22:07.934Z,43.29
2018-03-19T11:24:35.415Z,43.35
2018-03-19T11:27:02.849Z,42.70
2018-03-19T11:29:30.715Z,42.12
2018-03-19T11:31:58.236Z,41.75
2018-03-19T11:34:25.712Z,41.80
2018-03-19T11:36:53.350Z,41.69
2018-03-19T11:39:20.790Z,41.26
2018-03-19T11:41:48.262Z,40.52
2018-03-19T11:44:15.682Z,40.02
2018-03-19T11:46:43.145Z,39.19
2018-03-19T11:49:10.970Z,38.85
2018-03-19T11:51:38.449Z,39.27
2018-03-19T11:54:06.035Z,39.30
2018-03-19T11:56:33.450Z,39.25
2018-03-19T11:59:00.982Z,38.90
2018-03-19T12:01:28.454Z,38.98
2018-03-19T12:03:56.197Z,36.99
2018-03-19T12:06:23.789Z,36.03
2018-03-19T12:08:51.488Z,36.26
2018-03-19T12:11:18.997Z,37.10
2018-03-19T12:13:46.413Z,37.66
2018-03-19T12:16:13.849Z,37.58
2018-03-19T12:18:41.286Z,36.09
2018-03-19T12:21:08.943Z,35.47
2018-03-19T12:23:37.155Z,34.99
2018-03-19T12:26:04.699Z,34.58
2018-03-19T12:28:32.277Z,35.51
2018-03-19T12:30:59.684Z,35.33
2018-03-19T12:33:27.227Z,35.47
2018-03-19T12:35:54.714Z,35.70
2018-03-19T12:38:22.219Z,35.88
2018-03-19T12:40:49.649Z,35.67
2018-03-19T12:43:17.100Z,35.48
2018-03-19T12:45:44.517Z,35.61
2018-03-19T12:48:12.202Z,34.85
2018-03-19T12:50:40.424Z,35.35
2018-03-19T12:53:07.849Z,36.80
2018-03-19T12:55:35.342Z,37.01
2018-03-19T12:58:02.846Z,35.82
2018-03-19T13:00:30.269Z,35.24
2018-03-19T13:02:57.704Z,34.93
2018-03-19T13:05:25.146Z,34.45
2018-03-19T13:07:52.544Z,34.18
2018-03-19T13:10:19.971Z,34.93
2018-03-19T13:12:47.475Z,34.48
2018-03-19T13:15:14.909Z,34.16
2018-03-19T13:17:43.206Z,34.25
2018-03-19T13:20:10.575Z,33.38
2018-03-19T13:22:38.121Z,32.97
2018-03-19T13:25:05.551Z,32.80
2018-03-19T13:27:32.960Z,32.59
2018-03-19T13:30:00.650Z,33.23
2018-03-19T13:32:28.287Z,33.90
2018-03-19T13:34:55.790Z,33.93
2018-03-19T13:37:23.441Z,34.69
2018-03-19T13:39:50.864Z,35.34
2018-03-19T13:42:18.447Z,34.78
2018-03-19T13:44:45.916Z,33.63
2018-03-19T13:47:13.395Z,33.15
2018-03-19T13:49:40.830Z,32.83
2018-03-19T13:52:08.413Z,33.20
2018-03-19T13:54:35.804Z,33.35
2018-03-19T13:57:03.220Z,33.80
2018-03-19T13:59:30.720Z,34.17
2018-03-19T14:01:58.157Z,34.26
2018-03-19T14:04:25.630Z,34.38
2018-03-19T14:06:54.036Z,34.89
2018-03-19T14:09:21.442Z,34.98
2018-03-19T14:11:48.925Z,35.37
2018-03-19T14:14:16.344Z,34.13
2018-03-19T14:16:43.863Z,34.57
2018-03-19T14:19:11.280Z,34.02
2018-03-19T14:21:38.858Z,34.45
2018-03-19T14:24:06.310Z,33.18
2018-03-19T14:26:33.816Z,32.92
2018-03-19T14:29:01.205Z,33.66
2018-03-19T14:31:28.896Z,33.62
2018-03-19T14:33:56.367Z,34.42
2018-03-19T14:36:23.761Z,35.35
2018-03-19T14:38:51.162Z,35.94
2018-03-19T14:41:19.501Z,35.79
2018-03-19T14:43:46.993Z,34.98
2018-03-19T14:46:14.474Z,35.28
2018-03-19T14:48:41.986Z,34.70
2018-03-19T14:51:09.618Z,35.07
2018-03-19T14:53:37.058Z,34.83
2018-03-19T14:56:04.482Z,35.00
2018-03-19T14:58:31.951Z,33.99
2018-03-19T15:00:59.440Z,34.91
2018-03-19T15:03:26.927Z,34.92
2018-03-19T15:05:54.457Z,34.75
2018-03-19T15:08:21.865Z,34.54
2018-03-19T15:10:49.313Z,34.27
2018-03-19T15:13:16.724Z,34.42
2018-03-19T15:15:44.266Z,34.80
2018-03-19T15:18:11.872Z,35.21
2018-03-19T15:20:39.446Z,35.11
2018-03-19T15:23:06.924Z,36.59
2018-03-19T15:25:34.458Z,37.55
2018-03-19T15:28:02.070Z,38.45
2018-03-19T15:30:29.509Z,38.95
2018-03-19T15:32:56.958Z,38.88
2018-03-19T15:35:24.370Z,38.54
2018-03-19T15:37:51.809Z,38.99
2018-03-19T15:40:19.303Z,39.55
2018-03-19T15:42:46.736Z,40.03
2018-03-19T15:45:14.142Z,40.64
2018-03-19T15:47:41.571Z,42.13
2018-03-19T15:50:09.415Z,42.62
2018-03-19T15:52:36.858Z,43.87
2018-03-19T15:55:04.362Z,42.10
2018-03-19T15:57:31.950Z,43.14
2018-03-19T15:59:59.422Z,44.13
2018-03-19T16:02:27.136Z,44.63
2018-03-19T16:04:54.648Z,44.77
2018-03-19T16:07:22.175Z,44.67
2018-03-19T16:09:49.610Z,44.70
2018-03-19T16:12:17.073Z,44.88
2018-03-19T16:14:44.447Z,44.79
2018-03-19T16:17:11.875Z,44.74
2018-03-19T16:19:39.369Z,45.30
2018-03-19T16:22:06.827Z,45.27
2018-03-19T16:24:34.307Z,45.83
2018-03-19T16:27:01.738Z,46.09
2018-03-19T16:29:29.327Z,46.36
2018-03-19T16:31:56.778Z,46.54
2018-03-19T16:34:24.824Z,46.61
2018-03-19T16:36:52.293Z,46.57
2018-03-19T16:39:19.789Z,46.55
2018-03-19T16:41:47.246Z,47.11
2018-03-19T16:44:14.772Z,47.09
2018-03-19T16:46:42.217Z,48.24
2018-03-19T16:49:09.789Z,48.71
2018-03-19T16:51:37.766Z,48.56
2018-03-19T16:54:05.247Z,48.54
2018-03-19T16:56:32.659Z,48.98
2018-03-19T16:59:00.188Z,48.89
2018-03-19T17:01:27.600Z,49.30
2018-03-19T17:03:54.996Z,49.38
2018-03-19T17:06:22.489Z,49.60
2018-03-19T17:08:49.944Z,50.46
2018-03-19T17:11:17.403Z,51.16
2018-03-19T17:13:44.882Z,51.68
2018-03-19T17:16:12.321Z,52.74
2018-03-19T17:18:39.765Z,53.30
2018-03-19T17:21:07.208Z,53.98
2018-03-19T17:23:34.722Z,54.50
2018-03-19T17:26:02.187Z,54.95
2018-03-19T17:28:29.631Z,55.15
2018-03-19T17:30:57.146Z,55.29
2018-03-19T17:33:24.579Z,55.69
2018-03-19T17:35:52.089Z,55.99
2018-03-19T17:38:19.537Z,56.12
2018-03-19T17:40:47.009Z,56.24
2018-03-19T17:43:14.432Z,56.46
2018-03-19T17:45:41.909Z,56.92
2018-03-19T17:48:09.357Z,57.43
2018-03-19T17:50:36.774Z,58.35
2018-03-19T17:53:04.256Z,58.16
2018-03-19T17:55:31.729Z,58.47
2018-03-19T17:57:59.159Z,58.69
2018-03-19T18:00:26.611Z,59.06
2018-03-19T18:02:54.088Z,59.37
2018-03-19T18:05:21.666Z,59.29
2018-03-19T18:07:49.117Z,59.37
2018-03-19T18:10:16.611Z,59.51
2018-03-19T18:12:44.096Z,59.53
2018-03-19T18:15:11.560Z,59.93
2018-03-19T18:17:40.132Z,60.21
2018-03-19T18:20:07.708Z,60.36
2018-03-19T18:22:35.222Z,60.42
2018-03-19T18:25:02.683Z,60.21
2018-03-19T18:27:30.114Z,60.74
2018-03-19T18:29:57.549Z,60.66
2018-03-19T18:32:24.985Z,60.83
2018-03-19T18:34:52.433Z,60.99
2018-03-19T18:37:19.891Z,60.91
2018-03-19T18:39:47.390Z,61.25
2018-03-19T18:42:15.581Z,61.42
2018-03-19T18:44:43.132Z,61.57
2018-03-19T18:47:11.204Z,61.75
2018-03-19T18:49:38.637Z,61.98
2018-03-19T18:52:06.103Z,62.03
2018-03-19T18:54:33.545Z,62.40
2018-03-19T18:57:01.019Z,62.50
2018-03-19T18:59:28.979Z,62.82
2018-03-19T19:01:56.463Z,62.63
2018-03-19T19:04:23.999Z,62.68
2018-03-19T19:06:51.520Z,62.59
2018-03-19T19:09:18.978Z,62.78
2018-03-19T19:11:46.421Z,62.80
2018-03-19T19:14:14.835Z,62.75
2018-03-19T19:16:42.271Z,62.76
2018-03-19T19:19:09.801Z,62.63
2018-03-19T19:21:37.253Z,62.89
2018-03-19T19:24:04.709Z,62.73
2018-03-19T19:26:32.216Z,62.67
2018-03-19T19:28:59.703Z,62.86
2018-03-19T19:31:27.162Z,63.17
2018-03-19T19:33:54.700Z,63.48
2018-03-19T19:36:22.104Z,64.07
2018-03-19T19:38:49.517Z,63.83
2018-03-19T19:41:17.244Z,63.85
2018-03-19T19:43:44.670Z,64.06
2018-03-19T19:46:12.139Z,64.20
2018-03-19T19:48:39.577Z,63.96
2018-03-19T19:51:07.052Z,64.23
2018-03-19T19:53:34.450Z,64.17
2018-03-19T19:56:02.071Z,64.02
2018-03-19T19:58:29.552Z,65.28
2018-03-19T20:00:56.954Z,64.08
2018-03-19T20:03:24.739Z,63.64
2018-03-19T20:05:52.134Z,63.50
2018-03-19T20:08:19.567Z,63.33
2018-03-19T20:10:47.115Z,63.43
2018-03-19T20:13:14.614Z,63.85
2018-03-19T20:15:42.568Z,63.76
2018-03-19T20:18:10.420Z,63.76
2018-03-19T20:20:37.947Z,63.26
2018-03-19T20:23:05.400Z,63.04
2018-03-19T20:25:32.862Z,63.42
2018-03-19T20:28:01.214Z,63.19
2018-03-19T20:30:28.769Z,63.27
2018-03-19T20:32:56.248Z,63.30
2018-03-19T20:35:23.662Z,63.17
2018-03-19T20:37:51.106Z,63.23
2018-03-19T20:40:18.573Z,63.16
2018-03-19T20:42:46.026Z,63.00
2018-03-19T20:45:13.545Z,63.06
2018-03-19T20:47:40.987Z,62.69
2018-03-19T20:50:08.516Z,62.57
2018-03-19T20:52:35.943Z,62.73
2018-03-19T20:55:03.328Z,62.97
2018-03-19T20:57:30.798Z,62.65
2018-03-19T20:59:58.285Z,62.62
2018-03-19T21:02:25.796Z,62.53
2018-03-19T21:04:53.221Z,63.03
2018-03-19T21:07:20.641Z,62.77
2018-03-19T21:09:48.056Z,62.92
2018-03-19T21:12:15.509Z,63.02
2018-03-19T21:14:43.086Z,63.14
2018-03-19T21:17:10.539Z,63.10
2018-03-19T21:19:38.000Z,63.13
2018-03-19T21:22:05.404Z,63.23
2018-03-19T21:24:32.808Z,62.80
2018-03-19T21:27:00.246Z,62.99
2018-03-19T21:29:27.716Z,62.83
2018-03-19T21:31:55.285Z,62.67
2018-03-19T21:34:22.863Z,62.93
2018-03-19T21:36:50.329Z,63.18
2018-03-19T21:39:17.857Z,63.07
2018-03-19T21:41:45.302Z,63.11
2018-03-19T21:44:12.846Z,63.34
2018-03-19T21:46:40.292Z,63.54
2018-03-19T21:49:07.767Z,63.36
2018-03-19T21:51:35.187Z,63.45
2018-03-19T21:54:02.656Z,63.70
2018-03-19T21:56:30.089Z,63.85
2018-03-19T21:58:57.559Z,64.06
2018-03-19T22:01:25.056Z,64.30
2018-03-19T22:03:52.531Z,64.12
2018-03-19T22:06:20.025Z,63.78
2018-03-19T22:08:47.453Z,64.19
2018-03-19T22:11:15.731Z,64.09
2018-03-19T22:13:43.207Z,64.14
2018-03-19T22:16:10.682Z,64.04
2018-03-19T22:18:38.226Z,63.88
2018-03-19T22:21:05.744Z,64.21
2018-03-19T22:23:33.211Z,64.13
2018-03-19T22:26:00.680Z,64.30
2018-03-19T22:28:28.073Z,64.62
2018-03-19T22:30:55.501Z,64.68
2018-03-19T22:33:23.507Z,64.76
2018-03-19T22:35:50.947Z,64.77
2018-03-19T22:38:18.385Z,64.44
2018-03-19T22:40:45.825Z,64.25
2018-03-19T22:43:13.805Z,64.30
2018-03-19T22:45:41.262Z,64.38
2018-03-19T22:48:08.669Z,64.46
2018-03-19T22:50:36.245Z,64.28
2018-03-19T22:53:04.125Z,64.50
2018-03-19T22:55:32.425Z,64.44
2018-03-19T22:58:00.496Z,64.59
2018-03-19T23:00:27.924Z,64.40
2018-03-19T23:02:55.369Z,64.67
2018-03-19T23:05:22.765Z,64.80
2018-03-19T23:07:50.191Z,64.53
2018-03-19T23:10:17.743Z,64.50
2018-03-19T23:12:45.152Z,64.08
2018-03-19T23:15:12.618Z,64.12
2018-03-19T23:17:40.057Z,64.28
